sensor_id;sensor_type;location;lat;lon;timestamp;pressure;altitude;pressure_sealevel;temperature;humidity
9855;BME280;4966;48.112;9.282;2023-08-24T00:01:02;94986.94;;;20.70;69.57
9855;BME280;4966;48.112;9.282;2023-08-24T00:03:27;94991.28;;;20.82;69.00
9855;BME280;4966;48.112;9.282;2023-08-24T00:05:53;94985.75;;;20.89;68.65
9855;BME280;4966;48.112;9.282;2023-08-24T00:08:19;94988.13;;;20.91;68.80
9855;BME280;4966;48.112;9.282;2023-08-24T00:10:45;94982.97;;;20.96;68.88
9855;BME280;4966;48.112;9.282;2023-08-24T00:13:13;94988.09;;;21.01;68.30
9855;BME280;4966;48.112;9.282;2023-08-24T00:15:39;94984.53;;;21.08;67.73
9855;BME280;4966;48.112;9.282;2023-08-24T00:18:05;94976.22;;;21.04;67.73
9855;BME280;4966;48.112;9.282;2023-08-24T00:20:31;94979.78;;;21.01;67.67
9855;BME280;4966;48.112;9.282;2023-08-24T00:23:00;94976.25;;;20.87;68.13
9855;BME280;4966;48.112;9.282;2023-08-24T00:25:25;94977.47;;;20.93;67.80
9855;BME280;4966;48.112;9.282;2023-08-24T00:27:52;94980.59;;;20.91;67.94
9855;BME280;4966;48.112;9.282;2023-08-24T00:30:18;94969.97;;;20.61;68.90
9855;BME280;4966;48.112;9.282;2023-08-24T00:32:43;94967.19;;;20.72;68.71
9855;BME280;4966;48.112;9.282;2023-08-24T00:35:09;94971.16;;;20.74;68.24
9855;BME280;4966;48.112;9.282;2023-08-24T00:37:36;94959.69;;;20.65;68.35
9855;BME280;4966;48.112;9.282;2023-08-24T00:40:03;94964.03;;;20.59;68.82
9855;BME280;4966;48.112;9.282;2023-08-24T00:42:39;94966.41;;;20.60;68.72
9855;BME280;4966;48.112;9.282;2023-08-24T00:45:05;94964.81;;;20.63;68.77
9855;BME280;4966;48.112;9.282;2023-08-24T00:47:31;94956.94;;;20.65;68.67
9855;BME280;4966;48.112;9.282;2023-08-24T00:49:57;94963.63;;;20.39;69.61
9855;BME280;4966;48.112;9.282;2023-08-24T00:52:25;94956.13;;;20.47;69.20
9855;BME280;4966;48.112;9.282;2023-08-24T00:54:51;94955.31;;;20.39;69.03
9855;BME280;4966;48.112;9.282;2023-08-24T00:57:16;94956.09;;;20.07;69.97
9855;BME280;4966;48.112;9.282;2023-08-24T00:59:42;94953.31;;;20.00;70.22
9855;BME280;4966;48.112;9.282;2023-08-24T01:02:07;94950.97;;;20.13;70.01
9855;BME280;4966;48.112;9.282;2023-08-24T01:04:32;94962.44;;;20.18;70.01
9855;BME280;4966;48.112;9.282;2023-08-24T01:06:58;94955.31;;;20.25;69.77
9855;BME280;4966;48.112;9.282;2023-08-24T01:09:23;94953.34;;;20.25;69.82
9855;BME280;4966;48.112;9.282;2023-08-24T01:15:19;94951.75;;;20.06;70.22
9855;BME280;4966;48.112;9.282;2023-08-24T01:17:49;94944.25;;;20.00;70.83
9855;BME280;4966;48.112;9.282;2023-08-24T01:20:17;94942.25;;;19.96;71.03
9855;BME280;4966;48.112;9.282;2023-08-24T01:25:38;94949.78;;;20.03;70.29
9855;BME280;4966;48.112;9.282;2023-08-24T01:28:06;94939.53;;;20.00;70.78
9855;BME280;4966;48.112;9.282;2023-08-24T01:30:34;94937.56;;;20.08;70.25
9855;BME280;4966;48.112;9.282;2023-08-24T01:33:02;94941.91;;;20.02;70.24
9855;BME280;4966;48.112;9.282;2023-08-24T01:35:29;94936.31;;;19.76;71.00
9855;BME280;4966;48.112;9.282;2023-08-24T01:37:54;94937.47;;;19.72;71.50
9855;BME280;4966;48.112;9.282;2023-08-24T01:40:25;94927.25;;;19.83;71.07
9855;BME280;4966;48.112;9.282;2023-08-24T01:42:58;94924.91;;;19.78;71.50
9855;BME280;4966;48.112;9.282;2023-08-24T01:45:28;94931.63;;;19.88;70.83
9855;BME280;4966;48.112;9.282;2023-08-24T01:47:55;94921.75;;;19.90;70.49
9855;BME280;4966;48.112;9.282;2023-08-24T01:50:21;94927.63;;;19.74;70.99
9855;BME280;4966;48.112;9.282;2023-08-24T01:52:48;94917.69;;;19.52;71.46
9855;BME280;4966;48.112;9.282;2023-08-24T01:55:13;94917.72;;;19.63;71.27
9855;BME280;4966;48.112;9.282;2023-08-24T01:57:40;94907.47;;;19.67;71.23
9855;BME280;4966;48.112;9.282;2023-08-24T02:00:06;94909.47;;;19.70;71.14
9855;BME280;4966;48.112;9.282;2023-08-24T02:02:32;94903.97;;;19.73;71.21
9855;BME280;4966;48.112;9.282;2023-08-24T02:04:58;94900.78;;;19.64;71.65
9855;BME280;4966;48.112;9.282;2023-08-24T02:07:23;94891.69;;;19.57;72.03
9855;BME280;4966;48.112;9.282;2023-08-24T02:09:49;94887.34;;;19.55;71.92
9855;BME280;4966;48.112;9.282;2023-08-24T02:12:14;94891.28;;;19.51;72.22
9855;BME280;4966;48.112;9.282;2023-08-24T02:14:40;94901.91;;;19.56;71.88
9855;BME280;4966;48.112;9.282;2023-08-24T02:17:05;94890.88;;;19.49;72.19
9855;BME280;4966;48.112;9.282;2023-08-24T02:19:30;94883.41;;;19.49;71.71
9855;BME280;4966;48.112;9.282;2023-08-24T02:21:56;94885.31;;;19.42;71.90
9855;BME280;4966;48.112;9.282;2023-08-24T02:24:21;94884.59;;;19.52;71.52
9855;BME280;4966;48.112;9.282;2023-08-24T02:26:46;94877.88;;;19.49;71.52
9855;BME280;4966;48.112;9.282;2023-08-24T02:29:12;94876.69;;;19.47;71.56
9855;BME280;4966;48.112;9.282;2023-08-24T02:31:37;94866.41;;;19.44;72.07
9855;BME280;4966;48.112;9.282;2023-08-24T02:34:02;94871.97;;;19.51;71.60
9855;BME280;4966;48.112;9.282;2023-08-24T02:36:28;94878.63;;;19.46;71.98
9855;BME280;4966;48.112;9.282;2023-08-24T02:38:54;94869.19;;;19.47;71.74
9855;BME280;4966;48.112;9.282;2023-08-24T02:41:19;94862.50;;;19.45;72.20
9855;BME280;4966;48.112;9.282;2023-08-24T02:43:44;94858.53;;;19.35;72.41
9855;BME280;4966;48.112;9.282;2023-08-24T02:46:09;94859.28;;;19.32;72.37
9855;BME280;4966;48.112;9.282;2023-08-24T02:48:35;94861.31;;;19.46;71.78
9855;BME280;4966;48.112;9.282;2023-08-24T02:51:02;94867.19;;;19.33;72.23
9855;BME280;4966;48.112;9.282;2023-08-24T02:53:28;94854.13;;;19.20;73.01
9855;BME280;4966;48.112;9.282;2023-08-24T02:55:55;94860.09;;;19.25;72.75
9855;BME280;4966;48.112;9.282;2023-08-24T02:58:20;94851.41;;;19.23;73.12
9855;BME280;4966;48.112;9.282;2023-08-24T03:00:46;94850.22;;;19.24;73.09
9855;BME280;4966;48.112;9.282;2023-08-24T03:03:13;94848.25;;;19.32;72.87
9855;BME280;4966;48.112;9.282;2023-08-24T03:05:39;94844.72;;;19.31;72.43
9855;BME280;4966;48.112;9.282;2023-08-24T03:08:05;94849.06;;;19.29;72.65
9855;BME280;4966;48.112;9.282;2023-08-24T03:10:31;94845.47;;;19.18;73.43
9855;BME280;4966;48.112;9.282;2023-08-24T03:12:59;94845.88;;;19.27;73.03
9855;BME280;4966;48.112;9.282;2023-08-24T03:15:24;94847.88;;;19.23;73.50
9855;BME280;4966;48.112;9.282;2023-08-24T03:17:50;94839.19;;;19.24;73.03
9855;BME280;4966;48.112;9.282;2023-08-24T03:20:16;94844.72;;;19.31;73.11
9855;BME280;4966;48.112;9.282;2023-08-24T03:22:41;94843.16;;;19.30;72.82
9855;BME280;4966;48.112;9.282;2023-08-24T03:25:07;94841.97;;;19.31;72.76
9855;BME280;4966;48.112;9.282;2023-08-24T03:27:32;94842.38;;;19.41;72.10
9855;BME280;4966;48.112;9.282;2023-08-24T03:29:58;94849.06;;;19.25;72.71
9855;BME280;4966;48.112;9.282;2023-08-24T03:32:23;94846.69;;;19.31;72.55
9855;BME280;4966;48.112;9.282;2023-08-24T03:34:49;94849.06;;;19.36;72.71
9855;BME280;4966;48.112;9.282;2023-08-24T03:37:14;94850.25;;;19.39;72.48
9855;BME280;4966;48.112;9.282;2023-08-24T03:39:41;94851.06;;;19.46;72.09
9855;BME280;4966;48.112;9.282;2023-08-24T03:42:06;94849.09;;;19.47;72.20
9855;BME280;4966;48.112;9.282;2023-08-24T03:44:32;94841.25;;;19.60;71.85
9855;BME280;4966;48.112;9.282;2023-08-24T03:46:57;94847.53;;;19.60;72.18
9855;BME280;4966;48.112;9.282;2023-08-24T03:49:22;94857.03;;;19.66;72.22
9855;BME280;4966;48.112;9.282;2023-08-24T03:51:48;94844.81;;;19.64;71.98
9855;BME280;4966;48.112;9.282;2023-08-24T03:54:13;94840.41;;;19.48;72.84
9855;BME280;4966;48.112;9.282;2023-08-24T03:56:39;94839.28;;;19.64;72.05
9855;BME280;4966;48.112;9.282;2023-08-24T03:59:04;94833.75;;;19.64;71.88
9855;BME280;4966;48.112;9.282;2023-08-24T04:01:30;94826.25;;;19.57;72.94
9855;BME280;4966;48.112;9.282;2023-08-24T04:03:55;94824.66;;;19.49;72.56
9855;BME280;4966;48.112;9.282;2023-08-24T04:06:20;94826.25;;;19.50;72.87
9855;BME280;4966;48.112;9.282;2023-08-24T04:08:46;94824.66;;;19.45;73.15
9855;BME280;4966;48.112;9.282;2023-08-24T04:11:11;94819.16;;;19.52;72.83
9855;BME280;4966;48.112;9.282;2023-08-24T04:13:37;94824.28;;;19.58;72.14
9855;BME280;4966;48.112;9.282;2023-08-24T04:16:02;94816.38;;;19.52;72.00
9855;BME280;4966;48.112;9.282;2023-08-24T04:18:29;94819.13;;;19.38;72.54
9855;BME280;4966;48.112;9.282;2023-08-24T04:20:54;94821.88;;;19.34;73.02
9855;BME280;4966;48.112;9.282;2023-08-24T04:23:24;94827.38;;;19.27;73.76
9855;BME280;4966;48.112;9.282;2023-08-24T04:25:50;94826.59;;;19.30;74.15
9855;BME280;4966;48.112;9.282;2023-08-24T04:28:15;94840.78;;;19.25;74.51
9855;BME280;4966;48.112;9.282;2023-08-24T04:30:40;94841.97;;;19.28;74.71
9855;BME280;4966;48.112;9.282;2023-08-24T04:33:06;94838.44;;;19.45;73.73
9855;BME280;4966;48.112;9.282;2023-08-24T04:35:34;94832.53;;;19.43;72.92
9855;BME280;4966;48.112;9.282;2023-08-24T04:37:59;94832.50;;;19.29;74.20
9855;BME280;4966;48.112;9.282;2023-08-24T04:40:25;94817.94;;;19.28;73.89
9855;BME280;4966;48.112;9.282;2023-08-24T04:42:50;94811.63;;;19.28;73.91
9855;BME280;4966;48.112;9.282;2023-08-24T04:45:15;94817.53;;;19.23;74.42
9855;BME280;4966;48.112;9.282;2023-08-24T04:47:41;94824.91;;;18.94;76.84
9855;BME280;4966;48.112;9.282;2023-08-24T04:50:07;94827.69;;;19.01;77.01
9855;BME280;4966;48.112;9.282;2023-08-24T04:52:32;94828.91;;;19.18;76.09
9855;BME280;4966;48.112;9.282;2023-08-24T04:54:57;94834.13;;;19.37;74.72
9855;BME280;4966;48.112;9.282;2023-08-24T04:57:23;94832.13;;;19.38;74.10
9855;BME280;4966;48.112;9.282;2023-08-24T04:59:48;94833.31;;;19.37;74.24
9855;BME280;4966;48.112;9.282;2023-08-24T05:02:13;94832.94;;;19.45;73.97
9855;BME280;4966;48.112;9.282;2023-08-24T05:04:39;94830.56;;;19.51;73.57
9855;BME280;4966;48.112;9.282;2023-08-24T05:07:04;94834.16;;;19.62;73.32
9855;BME280;4966;48.112;9.282;2023-08-24T05:09:30;94819.16;;;19.52;73.42
9855;BME280;4966;48.112;9.282;2023-08-24T05:11:55;94818.38;;;19.59;73.83
9855;BME280;4966;48.112;9.282;2023-08-24T05:14:20;94813.28;;;19.68;73.17
9855;BME280;4966;48.112;9.282;2023-08-24T05:16:45;94807.72;;;19.54;73.78
9855;BME280;4966;48.112;9.282;2023-08-24T05:19:11;94817.63;;;19.76;72.86
9855;BME280;4966;48.112;9.282;2023-08-24T05:21:36;94817.63;;;19.73;73.09
9855;BME280;4966;48.112;9.282;2023-08-24T05:24:02;94826.28;;;19.89;72.51
9855;BME280;4966;48.112;9.282;2023-08-24T05:26:29;94823.53;;;20.14;72.26
9855;BME280;4966;48.112;9.282;2023-08-24T05:28:54;94821.16;;;20.20;71.90
9855;BME280;4966;48.112;9.282;2023-08-24T05:31:20;94827.44;;;20.42;71.81
9855;BME280;4966;48.112;9.282;2023-08-24T05:33:45;94821.88;;;20.64;70.45
9855;BME280;4966;48.112;9.282;2023-08-24T05:36:10;94820.22;;;20.88;69.73
9855;BME280;4966;48.112;9.282;2023-08-24T05:38:36;94829.28;;;21.02;68.86
9855;BME280;4966;48.112;9.282;2023-08-24T05:41:01;94814.13;;;21.25;67.92
9855;BME280;4966;48.112;9.282;2023-08-24T05:43:26;94809.31;;;21.43;67.08
9855;BME280;4966;48.112;9.282;2023-08-24T05:45:52;94806.84;;;21.60;67.64
9855;BME280;4966;48.112;9.282;2023-08-24T05:48:17;94807.50;;;21.78;67.68
9855;BME280;4966;48.112;9.282;2023-08-24T05:50:46;94808.53;;;21.99;66.89
9855;BME280;4966;48.112;9.282;2023-08-24T05:53:12;94807.25;;;22.11;65.80
9855;BME280;4966;48.112;9.282;2023-08-24T05:55:38;94807.06;;;22.32;67.07
9855;BME280;4966;48.112;9.282;2023-08-24T05:58:04;94801.00;;;22.44;66.04
9855;BME280;4966;48.112;9.282;2023-08-24T06:00:30;94798.41;;;22.26;63.55
9855;BME280;4966;48.112;9.282;2023-08-24T06:02:55;94799.03;;;22.45;62.32
9855;BME280;4966;48.112;9.282;2023-08-24T06:05:20;94806.94;;;22.81;60.71
9855;BME280;4966;48.112;9.282;2023-08-24T06:07:46;94813.47;;;22.98;59.85
9855;BME280;4966;48.112;9.282;2023-08-24T06:10:11;94807.88;;;23.05;58.61
9855;BME280;4966;48.112;9.282;2023-08-24T06:12:37;94804.38;;;22.97;59.06
9855;BME280;4966;48.112;9.282;2023-08-24T06:15:03;94802.56;;;23.18;58.00
9855;BME280;4966;48.112;9.282;2023-08-24T06:17:30;94794.75;;;23.09;57.77
9855;BME280;4966;48.112;9.282;2023-08-24T06:19:55;94793.78;;;22.88;58.05
9855;BME280;4966;48.112;9.282;2023-08-24T06:22:20;94799.03;;;23.44;56.75
9855;BME280;4966;48.112;9.282;2023-08-24T06:24:46;94804.91;;;23.50;56.46
9855;BME280;4966;48.112;9.282;2023-08-24T06:27:11;94805.78;;;23.74;56.18
9855;BME280;4966;48.112;9.282;2023-08-24T06:29:36;94800.63;;;23.99;55.52
9855;BME280;4966;48.112;9.282;2023-08-24T06:32:02;94797.03;;;23.75;57.12
9855;BME280;4966;48.112;9.282;2023-08-24T06:34:27;94791.03;;;23.77;55.54
9855;BME280;4966;48.112;9.282;2023-08-24T06:36:53;94800.94;;;24.25;54.76
9855;BME280;4966;48.112;9.282;2023-08-24T06:39:18;94792.63;;;24.49;54.46
9855;BME280;4966;48.112;9.282;2023-08-24T06:41:44;94785.81;;;24.73;53.43
9855;BME280;4966;48.112;9.282;2023-08-24T06:44:12;94782.59;;;24.75;53.25
9855;BME280;4966;48.112;9.282;2023-08-24T06:46:38;94789.19;;;25.24;52.85
9855;BME280;4966;48.112;9.282;2023-08-24T06:49:03;94788.88;;;25.39;52.09
9855;BME280;4966;48.112;9.282;2023-08-24T06:51:28;94783.84;;;25.50;52.00
9855;BME280;4966;48.112;9.282;2023-08-24T06:53:54;94789.75;;;25.36;52.03
9855;BME280;4966;48.112;9.282;2023-08-24T06:56:19;94788.66;;;25.30;52.04
9855;BME280;4966;48.112;9.282;2023-08-24T06:58:47;94788.59;;;25.13;52.67
9855;BME280;4966;48.112;9.282;2023-08-24T07:01:12;94788.44;;;24.80;53.11
9855;BME280;4966;48.112;9.282;2023-08-24T07:03:38;94786.38;;;24.84;53.79
9855;BME280;4966;48.112;9.282;2023-08-24T07:06:05;94787.59;;;25.23;53.50
9855;BME280;4966;48.112;9.282;2023-08-24T07:08:34;94787.88;;;25.29;52.63
9855;BME280;4966;48.112;9.282;2023-08-24T07:11:00;94790.31;;;24.87;53.72
9855;BME280;4966;48.112;9.282;2023-08-24T07:13:25;94789.69;;;25.19;53.18
9855;BME280;4966;48.112;9.282;2023-08-24T07:15:51;94782.44;;;25.02;53.36
9855;BME280;4966;48.112;9.282;2023-08-24T07:18:17;94792.84;;;25.38;53.29
9855;BME280;4966;48.112;9.282;2023-08-24T07:20:42;94774.28;;;25.67;52.06
9855;BME280;4966;48.112;9.282;2023-08-24T07:23:07;94774.28;;;25.51;52.51
9855;BME280;4966;48.112;9.282;2023-08-24T07:25:33;94779.66;;;25.42;53.11
9855;BME280;4966;48.112;9.282;2023-08-24T07:27:58;94768.28;;;25.69;52.57
9855;BME280;4966;48.112;9.282;2023-08-24T07:30:25;94767.28;;;25.96;52.31
9855;BME280;4966;48.112;9.282;2023-08-24T07:32:52;94769.09;;;26.02;51.94
9855;BME280;4966;48.112;9.282;2023-08-24T07:35:17;94771.03;;;26.05;51.39
9855;BME280;4966;48.112;9.282;2023-08-24T07:37:43;94769.44;;;26.04;51.96
9855;BME280;4966;48.112;9.282;2023-08-24T07:40:08;94768.31;;;26.18;51.74
9855;BME280;4966;48.112;9.282;2023-08-24T07:42:47;94770.03;;;26.74;51.14
9855;BME280;4966;48.112;9.282;2023-08-24T07:45:13;94769.50;;;26.79;51.17
9855;BME280;4966;48.112;9.282;2023-08-24T07:47:39;94764.56;;;26.70;50.19
9855;BME280;4966;48.112;9.282;2023-08-24T07:50:06;94764.91;;;26.72;51.09
9855;BME280;4966;48.112;9.282;2023-08-24T07:52:32;94776.47;;;26.58;51.77
9855;BME280;4966;48.112;9.282;2023-08-24T07:54:59;94777.69;;;26.41;51.77
9855;BME280;4966;48.112;9.282;2023-08-24T07:57:25;94777.78;;;26.37;52.37
9855;BME280;4966;48.112;9.282;2023-08-24T07:59:53;94793.38;;;26.51;52.55
9855;BME280;4966;48.112;9.282;2023-08-24T08:02:18;94795.31;;;26.83;52.84
9855;BME280;4966;48.112;9.282;2023-08-24T08:04:44;94798.78;;;26.87;51.86
9855;BME280;4966;48.112;9.282;2023-08-24T08:07:09;94795.34;;;27.25;51.35
9855;BME280;4966;48.112;9.282;2023-08-24T08:09:36;94790.13;;;27.53;51.12
9855;BME280;4966;48.112;9.282;2023-08-24T08:12:01;94784.53;;;27.53;51.86
9855;BME280;4966;48.112;9.282;2023-08-24T08:14:27;94780.97;;;27.52;52.45
9855;BME280;4966;48.112;9.282;2023-08-24T08:16:52;94784.19;;;27.38;52.50
9855;BME280;4966;48.112;9.282;2023-08-24T08:19:17;94775.06;;;27.63;52.13
9855;BME280;4966;48.112;9.282;2023-08-24T08:21:44;94775.03;;;27.38;51.95
9855;BME280;4966;48.112;9.282;2023-08-24T08:24:10;94770.03;;;27.71;51.99
9855;BME280;4966;48.112;9.282;2023-08-24T08:26:36;94780.56;;;27.92;51.63
9855;BME280;4966;48.112;9.282;2023-08-24T08:29:01;94772.59;;;27.40;51.70
9855;BME280;4966;48.112;9.282;2023-08-24T08:31:26;94778.53;;;27.80;50.92
9855;BME280;4966;48.112;9.282;2023-08-24T08:33:52;94781.41;;;28.15;50.43
9855;BME280;4966;48.112;9.282;2023-08-24T08:36:17;94777.09;;;27.88;50.16
9855;BME280;4966;48.112;9.282;2023-08-24T08:38:42;94787.13;;;27.34;52.22
9855;BME280;4966;48.112;9.282;2023-08-24T08:41:08;94783.84;;;27.23;51.69
9855;BME280;4966;48.112;9.282;2023-08-24T08:43:34;94788.69;;;27.61;50.82
9855;BME280;4966;48.112;9.282;2023-08-24T08:46:00;94780.59;;;28.27;48.77
9855;BME280;4966;48.112;9.282;2023-08-24T08:48:25;94777.53;;;27.87;50.45
9855;BME280;4966;48.112;9.282;2023-08-24T08:50:53;94781.09;;;27.62;50.91
9855;BME280;4966;48.112;9.282;2023-08-24T08:53:22;94779.16;;;28.23;49.15
9855;BME280;4966;48.112;9.282;2023-08-24T08:55:51;94778.97;;;28.65;48.07
9855;BME280;4966;48.112;9.282;2023-08-24T08:58:17;94784.06;;;28.79;48.19
9855;BME280;4966;48.112;9.282;2023-08-24T09:00:44;94781.44;;;28.84;49.04
9855;BME280;4966;48.112;9.282;2023-08-24T09:03:11;94768.44;;;28.91;48.54
9855;BME280;4966;48.112;9.282;2023-08-24T09:05:37;94768.19;;;29.20;48.39
9855;BME280;4966;48.112;9.282;2023-08-24T09:08:04;94769.22;;;28.91;48.36
9855;BME280;4966;48.112;9.282;2023-08-24T09:10:30;94751.47;;;29.07;48.01
9855;BME280;4966;48.112;9.282;2023-08-24T09:12:56;94756.28;;;29.29;47.77
9855;BME280;4966;48.112;9.282;2023-08-24T09:15:26;94751.78;;;29.62;46.30
9855;BME280;4966;48.112;9.282;2023-08-24T09:17:53;94764.84;;;29.65;47.02
9855;BME280;4966;48.112;9.282;2023-08-24T09:20:20;94750.75;;;29.78;46.55
9855;BME280;4966;48.112;9.282;2023-08-24T09:22:45;94752.69;;;30.00;46.58
9855;BME280;4966;48.112;9.282;2023-08-24T09:25:11;94755.63;;;30.46;46.60
9855;BME280;4966;48.112;9.282;2023-08-24T09:27:36;94749.81;;;29.41;48.14
9855;BME280;4966;48.112;9.282;2023-08-24T09:30:02;94741.91;;;30.57;45.85
9855;BME280;4966;48.112;9.282;2023-08-24T09:32:28;94738.00;;;30.27;45.57
9855;BME280;4966;48.112;9.282;2023-08-24T09:34:55;94734.72;;;31.11;44.42
9855;BME280;4966;48.112;9.282;2023-08-24T09:37:20;94734.75;;;30.74;43.49
9855;BME280;4966;48.112;9.282;2023-08-24T09:39:46;94721.84;;;31.47;42.05
9855;BME280;4966;48.112;9.282;2023-08-24T09:42:12;94726.09;;;31.76;41.71
9855;BME280;4966;48.112;9.282;2023-08-24T09:44:38;94718.28;;;32.13;40.45
9855;BME280;4966;48.112;9.282;2023-08-24T09:47:12;94708.81;;;32.50;40.27
9855;BME280;4966;48.112;9.282;2023-08-24T09:49:38;94711.97;;;32.42;40.81
9855;BME280;4966;48.112;9.282;2023-08-24T09:52:07;94706.00;;;32.50;39.76
9855;BME280;4966;48.112;9.282;2023-08-24T09:54:36;94706.09;;;32.31;41.18
9855;BME280;4966;48.112;9.282;2023-08-24T09:57:02;94704.09;;;32.47;39.95
9855;BME280;4966;48.112;9.282;2023-08-24T09:59:30;94699.72;;;32.55;40.16
9855;BME280;4966;48.112;9.282;2023-08-24T10:01:56;94690.81;;;32.47;40.23
9855;BME280;4966;48.112;9.282;2023-08-24T10:04:28;94682.97;;;32.51;40.12
9855;BME280;4966;48.112;9.282;2023-08-24T10:07:07;94687.47;;;32.58;40.15
9855;BME280;4966;48.112;9.282;2023-08-24T10:10:06;94675.59;;;32.93;39.07
9855;BME280;4966;48.112;9.282;2023-08-24T10:12:41;94675.06;;;32.65;39.69
9855;BME280;4966;48.112;9.282;2023-08-24T10:15:09;94679.50;;;33.10;39.91
9855;BME280;4966;48.112;9.282;2023-08-24T10:17:37;94666.94;;;33.11;39.30
9855;BME280;4966;48.112;9.282;2023-08-24T10:20:03;94663.84;;;33.24;39.24
9855;BME280;4966;48.112;9.282;2023-08-24T10:22:33;94666.53;;;33.63;39.14
9855;BME280;4966;48.112;9.282;2023-08-24T10:24:59;94662.53;;;33.55;36.92
9855;BME280;4966;48.112;9.282;2023-08-24T10:27:26;94659.72;;;33.70;37.55
9855;BME280;4966;48.112;9.282;2023-08-24T10:29:52;94655.44;;;33.44;37.90
9855;BME280;4966;48.112;9.282;2023-08-24T10:32:19;94642.09;;;34.10;37.10
9855;BME280;4966;48.112;9.282;2023-08-24T10:34:46;94648.50;;;34.10;37.21
9855;BME280;4966;48.112;9.282;2023-08-24T10:37:11;94649.75;;;34.30;35.58
9855;BME280;4966;48.112;9.282;2023-08-24T10:39:45;94652.56;;;33.24;38.00
9855;BME280;4966;48.112;9.282;2023-08-24T10:42:12;94649.34;;;34.37;36.68
9855;BME280;4966;48.112;9.282;2023-08-24T10:44:38;94652.28;;;34.48;35.60
9855;BME280;4966;48.112;9.282;2023-08-24T10:47:21;94651.44;;;34.63;35.68
9855;BME280;4966;48.112;9.282;2023-08-24T10:52:43;94647.31;;;33.32;37.78
9855;BME280;4966;48.112;9.282;2023-08-24T10:55:25;94641.88;;;33.78;38.11
9855;BME280;4966;48.112;9.282;2023-08-24T10:57:59;94637.06;;;34.61;37.01
9855;BME280;4966;48.112;9.282;2023-08-24T11:00:29;94637.25;;;33.96;38.46
9855;BME280;4966;48.112;9.282;2023-08-24T11:02:55;94632.09;;;34.56;36.85
9855;BME280;4966;48.112;9.282;2023-08-24T11:05:25;94631.25;;;34.96;34.79
9855;BME280;4966;48.112;9.282;2023-08-24T11:08:05;94633.94;;;34.85;34.76
9855;BME280;4966;48.112;9.282;2023-08-24T11:10:45;94635.84;;;35.57;34.11
9855;BME280;4966;48.112;9.282;2023-08-24T11:13:17;94623.72;;;35.51;33.89
9855;BME280;4966;48.112;9.282;2023-08-24T11:23:09;94616.63;;;36.64;32.60
9855;BME280;4966;48.112;9.282;2023-08-24T11:25:35;94615.16;;;37.25;32.41
9855;BME280;4966;48.112;9.282;2023-08-24T11:28:03;94613.81;;;38.63;30.33
9855;BME280;4966;48.112;9.282;2023-08-24T11:30:30;94616.84;;;40.71;27.11
9855;BME280;4966;48.112;9.282;2023-08-24T11:32:55;94602.72;;;41.17;26.02
9855;BME280;4966;48.112;9.282;2023-08-24T11:35:21;94598.28;;;41.48;25.81
9855;BME280;4966;48.112;9.282;2023-08-24T11:37:55;94598.28;;;41.94;26.13
9855;BME280;4966;48.112;9.282;2023-08-24T11:40:20;94596.63;;;42.52;23.94
9855;BME280;4966;48.112;9.282;2023-08-24T11:42:53;94598.13;;;41.59;25.35
9855;BME280;4966;48.112;9.282;2023-08-24T11:45:18;94598.16;;;41.86;25.31
9855;BME280;4966;48.112;9.282;2023-08-24T11:47:44;94586.84;;;41.35;25.38
9855;BME280;4966;48.112;9.282;2023-08-24T11:50:09;94585.59;;;40.98;25.59
9855;BME280;4966;48.112;9.282;2023-08-24T11:52:41;94591.31;;;40.16;27.59
9855;BME280;4966;48.112;9.282;2023-08-24T11:55:07;94595.53;;;38.95;28.45
9855;BME280;4966;48.112;9.282;2023-08-24T11:57:34;94600.72;;;37.29;30.05
9855;BME280;4966;48.112;9.282;2023-08-24T12:00:00;94601.34;;;38.19;28.26
9855;BME280;4966;48.112;9.282;2023-08-24T12:02:27;94605.31;;;37.71;29.17
9855;BME280;4966;48.112;9.282;2023-08-24T12:04:52;94593.84;;;36.30;30.40
9855;BME280;4966;48.112;9.282;2023-08-24T12:07:20;94595.56;;;37.38;29.60
9855;BME280;4966;48.112;9.282;2023-08-24T12:09:46;94590.41;;;37.14;30.87
9855;BME280;4966;48.112;9.282;2023-08-24T12:12:15;94587.81;;;37.28;30.75
9855;BME280;4966;48.112;9.282;2023-08-24T12:14:42;94584.69;;;37.76;29.62
9855;BME280;4966;48.112;9.282;2023-08-24T12:17:12;94584.63;;;37.93;29.63
9855;BME280;4966;48.112;9.282;2023-08-24T12:19:42;94572.59;;;37.47;30.84
9855;BME280;4966;48.112;9.282;2023-08-24T12:22:15;94568.75;;;37.06;31.52
9855;BME280;4966;48.112;9.282;2023-08-24T12:24:47;94568.03;;;36.23;32.40
9855;BME280;4966;48.112;9.282;2023-08-24T12:27:20;94558.63;;;36.65;32.86
9855;BME280;4966;48.112;9.282;2023-08-24T12:29:46;94557.41;;;37.06;32.30
9855;BME280;4966;48.112;9.282;2023-08-24T12:32:12;94555.34;;;36.95;32.74
9855;BME280;4966;48.112;9.282;2023-08-24T12:34:37;94551.16;;;37.63;31.51
9855;BME280;4966;48.112;9.282;2023-08-24T12:37:02;94551.72;;;37.28;32.04
9855;BME280;4966;48.112;9.282;2023-08-24T12:39:34;94544.72;;;37.52;31.56
9855;BME280;4966;48.112;9.282;2023-08-24T12:42:00;94540.97;;;39.81;28.19
9855;BME280;4966;48.112;9.282;2023-08-24T12:44:25;94545.94;;;41.13;26.27
9855;BME280;4966;48.112;9.282;2023-08-24T12:46:50;94531.34;;;43.32;23.23
9855;BME280;4966;48.112;9.282;2023-08-24T12:49:17;94531.00;;;42.46;23.94
9855;BME280;4966;48.112;9.282;2023-08-24T12:51:42;94529.16;;;42.22;23.90
9855;BME280;4966;48.112;9.282;2023-08-24T12:54:07;94521.91;;;41.81;25.13
9855;BME280;4966;48.112;9.282;2023-08-24T12:56:32;94526.34;;;41.36;24.97
9855;BME280;4966;48.112;9.282;2023-08-24T12:58:58;94523.63;;;41.44;25.51
9855;BME280;4966;48.112;9.282;2023-08-24T13:01:23;94514.81;;;40.96;25.97
9855;BME280;4966;48.112;9.282;2023-08-24T13:03:48;94510.97;;;40.94;26.59
9855;BME280;4966;48.112;9.282;2023-08-24T13:06:14;94502.38;;;41.13;26.67
9855;BME280;4966;48.112;9.282;2023-08-24T13:08:39;94508.38;;;40.58;27.16
9855;BME280;4966;48.112;9.282;2023-08-24T13:11:05;94508.88;;;41.27;26.71
9855;BME280;4966;48.112;9.282;2023-08-24T13:13:30;94503.31;;;42.14;26.13
9855;BME280;4966;48.112;9.282;2023-08-24T13:15:56;94490.25;;;42.87;23.98
9855;BME280;4966;48.112;9.282;2023-08-24T13:18:21;94499.09;;;42.28;24.44
9855;BME280;4966;48.112;9.282;2023-08-24T13:20:46;94488.22;;;43.38;23.45
9855;BME280;4966;48.112;9.282;2023-08-24T13:23:11;94489.75;;;44.92;21.93
9855;BME280;4966;48.112;9.282;2023-08-24T13:25:37;94476.50;;;44.14;22.35
9855;BME280;4966;48.112;9.282;2023-08-24T13:28:02;94470.47;;;42.76;23.33
9855;BME280;4966;48.112;9.282;2023-08-24T13:30:27;94468.00;;;42.94;24.12
9855;BME280;4966;48.112;9.282;2023-08-24T13:32:54;94463.84;;;43.44;23.66
9855;BME280;4966;48.112;9.282;2023-08-24T13:35:19;94459.34;;;43.07;23.16